createdAt,value
2017-08-02T00:00:02.718Z,0
2017-08-02T00:00:43.177Z,0
2017-08-02T00:01:23.625Z,0
2017-08-02T00:02:04.085Z,0
2017-08-02T00:02:44.588Z,0
2017-08-02T00:03:25.041Z,0
2017-08-02T00:04:05.496Z,0
2017-08-02T00:04:45.948Z,0
2017-08-02T00:05:26.401Z,0
2017-08-02T00:06:06.844Z,0
2017-08-02T00:06:47.265Z,0
2017-08-02T00:07:27.717Z,0
2017-08-02T00:08:08.186Z,0
2017-08-02T00:08:48.633Z,0
2017-08-02T00:09:29.173Z,0
2017-08-02T00:10:09.681Z,0
2017-08-02T00:10:50.253Z,0
2017-08-02T00:11:30.705Z,0
2017-08-02T00:12:11.165Z,0
2017-08-02T00:12:51.618Z,0
2017-08-02T00:13:32.153Z,0
2017-08-02T00:14:12.603Z,0
2017-08-02T00:14:53.035Z,0
2017-08-02T00:15:33.490Z,0
2017-08-02T00:16:13.942Z,0
2017-08-02T00:16:54.392Z,0
2017-08-02T00:17:34.926Z,0
2017-08-02T00:18:15.378Z,0
2017-08-02T00:18:55.833Z,0
2017-08-02T00:19:36.294Z,0
2017-08-02T00:20:16.943Z,0
2017-08-02T00:20:57.419Z,0
2017-08-02T00:21:37.883Z,0
2017-08-02T00:22:18.337Z,0
2017-08-02T00:22:58.789Z,0
2017-08-02T00:23:39.247Z,0
2017-08-02T00:24:19.708Z,0
2017-08-02T00:25:00.171Z,0
2017-08-02T00:25:40.761Z,0
2017-08-02T00:27:38.473Z,0
2017-08-02T00:28:18.921Z,0
2017-08-02T00:28:59.377Z,0
2017-08-02T00:29:39.832Z,0
2017-08-02T00:30:20.265Z,0
2017-08-02T00:31:00.722Z,0
2017-08-02T00:31:41.178Z,0
2017-08-02T00:32:21.631Z,0
2017-08-02T00:33:02.087Z,0
2017-08-02T00:33:42.541Z,0
2017-08-02T00:34:22.988Z,0
2017-08-02T00:35:03.444Z,0
2017-08-02T00:35:43.895Z,0
2017-08-02T00:36:24.331Z,0
2017-08-02T00:37:04.791Z,0
2017-08-02T00:37:45.239Z,0
2017-08-02T00:38:25.694Z,0
2017-08-02T00:39:06.149Z,0
2017-08-02T00:39:46.608Z,0
2017-08-02T00:40:27.059Z,0
2017-08-02T00:41:07.519Z,0
2017-08-02T00:41:47.964Z,0
2017-08-02T00:42:28.428Z,0
2017-08-02T00:43:08.887Z,0
2017-08-02T00:43:49.356Z,0
2017-08-02T00:44:29.810Z,0
2017-08-02T00:45:10.269Z,0
2017-08-02T00:45:50.723Z,0
2017-08-02T00:46:31.180Z,0
2017-08-02T00:47:11.637Z,0
2017-08-02T00:47:52.100Z,0
2017-08-02T00:48:32.558Z,0
2017-08-02T00:49:13.024Z,0
2017-08-02T00:49:53.477Z,0
2017-08-02T00:50:33.925Z,0
2017-08-02T00:51:14.382Z,0
2017-08-02T00:51:54.841Z,0
2017-08-02T00:52:35.305Z,0
2017-08-02T00:53:15.759Z,0
2017-08-02T00:53:56.213Z,0
2017-08-02T00:54:36.663Z,0
2017-08-02T00:55:17.139Z,0
2017-08-02T00:55:57.576Z,0
2017-08-02T00:56:38.034Z,0
2017-08-02T00:57:18.494Z,0
2017-08-02T00:57:58.955Z,0
2017-08-02T00:58:39.409Z,0
2017-08-02T00:59:19.865Z,0
2017-08-02T01:00:00.323Z,0
2017-08-02T01:00:40.761Z,0
2017-08-02T01:01:21.219Z,0
2017-08-02T01:02:01.677Z,0
2017-08-02T01:02:42.132Z,0
2017-08-02T01:03:22.583Z,0
2017-08-02T01:04:03.044Z,0
2017-08-02T01:04:43.499Z,0
2017-08-02T01:05:23.960Z,0
2017-08-02T01:06:04.417Z,0
2017-08-02T01:06:44.884Z,0
2017-08-02T01:07:25.337Z,0
2017-08-02T01:08:05.795Z,0
2017-08-02T01:08:46.268Z,0
2017-08-02T01:09:26.719Z,0
2017-08-02T01:10:07.182Z,0
2017-08-02T01:10:47.631Z,0
2017-08-02T01:11:28.102Z,0
2017-08-02T01:12:08.562Z,0
2017-08-02T01:12:49.018Z,0
2017-08-02T01:13:29.485Z,0
2017-08-02T01:14:09.948Z,0
2017-08-02T01:14:50.404Z,0
2017-08-02T01:15:30.880Z,0
2017-08-02T01:16:11.332Z,0
2017-08-02T01:16:51.786Z,0
2017-08-02T01:17:32.251Z,0
2017-08-02T01:18:12.707Z,0
2017-08-02T01:18:53.158Z,0
2017-08-02T01:19:33.615Z,0
2017-08-02T01:20:14.073Z,0
2017-08-02T01:20:54.534Z,0
2017-08-02T01:21:34.996Z,0
2017-08-02T01:22:15.455Z,0
2017-08-02T01:22:55.915Z,0
2017-08-02T01:23:36.373Z,0
2017-08-02T01:24:16.841Z,0
2017-08-02T01:24:57.298Z,0
2017-08-02T01:25:37.754Z,0
2017-08-02T01:26:18.204Z,0
2017-08-02T01:26:58.665Z,0
2017-08-02T01:27:39.125Z,0
2017-08-02T01:28:19.577Z,0
2017-08-02T01:29:00.033Z,0
2017-08-02T01:29:40.497Z,0
2017-08-02T01:30:20.957Z,0
2017-08-02T01:31:01.415Z,0
2017-08-02T01:31:41.871Z,0
2017-08-02T01:32:22.383Z,0
2017-08-02T01:33:02.844Z,0
2017-08-02T01:33:43.300Z,0
2017-08-02T01:34:23.758Z,0
2017-08-02T01:35:04.216Z,0
2017-08-02T01:35:44.697Z,0
2017-08-02T01:36:25.151Z,0
2017-08-02T01:37:05.610Z,0
2017-08-02T01:37:46.064Z,0
2017-08-02T01:38:26.520Z,0
2017-08-02T01:39:06.982Z,0
2017-08-02T01:39:47.444Z,0
2017-08-02T01:40:27.891Z,0
2017-08-02T01:41:08.358Z,0
2017-08-02T01:41:48.814Z,0
2017-08-02T01:42:29.266Z,0
2017-08-02T01:43:09.721Z,0
2017-08-02T01:43:50.180Z,0
2017-08-02T01:44:30.631Z,0
2017-08-02T01:45:11.092Z,0
2017-08-02T01:45:51.547Z,0
2017-08-02T01:46:32.004Z,0
2017-08-02T01:47:12.464Z,0
2017-08-02T01:47:52.925Z,0
2017-08-02T01:48:33.379Z,0
2017-08-02T01:49:13.839Z,0
2017-08-02T01:49:54.300Z,0
2017-08-02T01:50:34.750Z,0
2017-08-02T01:51:15.212Z,0
2017-08-02T01:51:55.660Z,0
2017-08-02T01:52:36.113Z,0
2017-08-02T01:53:16.561Z,0
2017-08-02T01:53:57.015Z,0
2017-08-02T01:54:37.469Z,0
2017-08-02T01:55:17.928Z,0
2017-08-02T01:55:58.383Z,0
2017-08-02T01:56:38.832Z,0
2017-08-02T01:57:19.292Z,0
2017-08-02T01:57:59.748Z,0
2017-08-02T01:58:40.201Z,0
2017-08-02T01:59:20.675Z,0
2017-08-02T02:00:01.112Z,0
2017-08-02T02:00:41.575Z,0
2017-08-02T02:01:22.036Z,0
2017-08-02T02:02:02.483Z,0
2017-08-02T02:02:42.931Z,0
2017-08-02T02:03:23.385Z,0
2017-08-02T02:04:03.845Z,0
2017-08-02T02:04:44.295Z,0
2017-08-02T02:05:24.748Z,0
2017-08-02T02:06:05.206Z,0
2017-08-02T02:06:45.659Z,0
2017-08-02T02:07:26.124Z,0
2017-08-02T02:08:06.588Z,0
2017-08-02T02:08:47.053Z,0
2017-08-02T02:09:27.514Z,0
2017-08-02T02:10:07.963Z,0
2017-08-02T02:10:48.412Z,0
2017-08-02T02:11:28.863Z,0
2017-08-02T02:12:09.355Z,0
2017-08-02T02:14:07.067Z,0
2017-08-02T02:14:47.519Z,0
2017-08-02T02:15:27.975Z,0
2017-08-02T02:16:08.428Z,0
2017-08-02T02:16:48.884Z,0
2017-08-02T02:17:29.324Z,0
2017-08-02T02:18:09.779Z,0
2017-08-02T02:18:50.236Z,0
2017-08-02T02:19:30.691Z,0
2017-08-02T02:20:11.141Z,0
2017-08-02T02:20:51.596Z,0
2017-08-02T02:21:32.062Z,0
2017-08-02T02:22:12.521Z,0
2017-08-02T02:22:52.972Z,0
2017-08-02T02:23:33.434Z,0
2017-08-02T02:24:13.889Z,0
2017-08-02T02:24:54.342Z,0
2017-08-02T02:25:34.791Z,0
2017-08-02T02:26:15.249Z,0
2017-08-02T02:26:55.709Z,0
2017-08-02T02:27:36.170Z,0
2017-08-02T02:28:16.627Z,0
2017-08-02T02:28:57.083Z,0
2017-08-02T02:29:37.524Z,0
2017-08-02T02:30:17.973Z,0
2017-08-02T02:30:58.427Z,0
2017-08-02T02:31:38.885Z,0
2017-08-02T02:32:19.348Z,0
2017-08-02T02:32:59.801Z,0
2017-08-02T02:33:40.266Z,0
2017-08-02T02:34:20.725Z,0
2017-08-02T02:35:01.180Z,0
2017-08-02T02:35:41.632Z,0
2017-08-02T02:36:22.086Z,0
2017-08-02T02:37:02.535Z,0
2017-08-02T02:37:42.986Z,0
2017-08-02T02:38:23.445Z,0
2017-08-02T02:39:03.913Z,0
2017-08-02T02:39:44.364Z,0
2017-08-02T02:40:24.822Z,0
2017-08-02T02:41:05.276Z,0
2017-08-02T02:41:45.733Z,0
2017-08-02T02:42:26.187Z,0
2017-08-02T02:43:06.654Z,0
2017-08-02T02:43:47.105Z,0
2017-08-02T02:44:27.560Z,0
2017-08-02T02:45:08.018Z,0
2017-08-02T02:45:48.474Z,0
2017-08-02T02:46:28.929Z,0
2017-08-02T02:47:09.407Z,0
2017-08-02T02:47:49.865Z,0
2017-08-02T02:48:30.326Z,0
2017-08-02T02:49:10.786Z,0
2017-08-02T02:49:51.246Z,0
2017-08-02T02:50:31.697Z,0
2017-08-02T02:51:12.145Z,0
2017-08-02T02:53:24.935Z,0
2017-08-02T02:54:05.384Z,0
2017-08-02T02:54:45.840Z,0
2017-08-02T02:55:26.300Z,0
2017-08-02T02:56:06.766Z,0
2017-08-02T02:56:47.217Z,0
2017-08-02T02:57:27.662Z,0
2017-08-02T02:58:08.125Z,0
2017-08-02T02:58:48.577Z,0
2017-08-02T02:59:29.025Z,0
2017-08-02T03:00:09.477Z,0
2017-08-02T03:00:49.928Z,0
2017-08-02T03:01:30.383Z,0
2017-08-02T03:02:10.837Z,0
2017-08-02T03:02:51.293Z,0
2017-08-02T03:03:31.745Z,0
2017-08-02T03:04:12.204Z,0
2017-08-02T03:04:52.657Z,0
2017-08-02T03:05:33.116Z,0
2017-08-02T03:06:13.574Z,0
2017-08-02T03:06:54.026Z,0
2017-08-02T03:07:34.486Z,0
2017-08-02T03:08:14.941Z,0
2017-08-02T03:08:55.404Z,0
2017-08-02T03:09:35.855Z,0
2017-08-02T03:10:16.312Z,0
2017-08-02T03:10:56.793Z,0
2017-08-02T03:11:37.244Z,0
2017-08-02T03:12:17.706Z,0
2017-08-02T03:12:58.159Z,0
2017-08-02T03:13:38.609Z,0
2017-08-02T03:14:19.064Z,0
2017-08-02T03:14:59.519Z,0
2017-08-02T03:15:39.970Z,0
2017-08-02T03:16:20.467Z,0
2017-08-02T03:17:00.921Z,0
2017-08-02T03:17:41.384Z,0
2017-08-02T03:18:21.842Z,0
2017-08-02T03:19:02.300Z,0
2017-08-02T03:19:42.749Z,0
2017-08-02T03:20:23.206Z,0
2017-08-02T03:21:03.658Z,0
2017-08-02T03:21:44.115Z,0
2017-08-02T03:22:24.602Z,0
2017-08-02T03:23:05.061Z,0
2017-08-02T03:23:45.522Z,0
2017-08-02T03:24:25.975Z,0
2017-08-02T03:25:06.430Z,0
2017-08-02T03:25:46.888Z,0
2017-08-02T03:26:27.359Z,0
2017-08-02T03:27:07.825Z,0
2017-08-02T03:27:48.272Z,0
2017-08-02T03:28:28.723Z,0
2017-08-02T03:29:09.181Z,0
2017-08-02T03:29:49.620Z,0
2017-08-02T03:30:30.076Z,0
2017-08-02T03:31:10.534Z,0
2017-08-02T03:31:50.988Z,0
2017-08-02T03:32:31.448Z,0
2017-08-02T03:33:11.905Z,0
2017-08-02T03:33:52.360Z,0
2017-08-02T03:34:32.806Z,0
2017-08-02T03:35:13.262Z,0
2017-08-02T03:35:53.718Z,0
2017-08-02T03:36:34.172Z,0
2017-08-02T03:37:14.628Z,0
2017-08-02T03:37:55.093Z,0
2017-08-02T03:38:35.552Z,0
2017-08-02T03:39:16.004Z,0
2017-08-02T03:39:56.480Z,0
2017-08-02T03:40:36.919Z,0
2017-08-02T03:41:17.503Z,0
2017-08-02T03:41:57.974Z,0
2017-08-02T03:42:38.419Z,0
2017-08-02T03:43:18.879Z,0
2017-08-02T03:43:59.335Z,0
2017-08-02T03:44:39.791Z,0
2017-08-02T03:45:20.246Z,0
2017-08-02T03:46:00.704Z,0
2017-08-02T03:46:41.163Z,0
2017-08-02T03:47:21.619Z,0
2017-08-02T03:48:02.081Z,0
2017-08-02T03:48:42.538Z,0
2017-08-02T03:49:22.991Z,8
2017-08-02T03:50:03.453Z,12
2017-08-02T03:50:43.898Z,20
2017-08-02T03:51:24.350Z,20
2017-08-02T03:52:04.802Z,12
2017-08-02T03:52:45.259Z,12
2017-08-02T03:53:25.703Z,8
2017-08-02T03:54:06.162Z,12
2017-08-02T03:54:46.619Z,12
2017-08-02T03:55:27.071Z,12
2017-08-02T03:56:07.525Z,12
2017-08-02T03:56:47.985Z,12
2017-08-02T03:57:28.437Z,16
2017-08-02T03:58:08.895Z,16
2017-08-02T03:58:49.375Z,12
2017-08-02T03:59:29.823Z,16
2017-08-02T04:00:10.272Z,16
2017-08-02T04:00:50.720Z,20
2017-08-02T04:01:31.191Z,16
2017-08-02T04:02:11.644Z,16
2017-08-02T04:02:52.100Z,20
2017-08-02T04:03:32.539Z,20
2017-08-02T04:04:12.986Z,20
2017-08-02T04:04:53.442Z,24
2017-08-02T04:05:33.894Z,20
2017-08-02T04:06:14.414Z,24
2017-08-02T04:06:54.858Z,24
2017-08-02T04:07:35.314Z,24
2017-08-02T04:08:15.761Z,24
2017-08-02T04:08:56.204Z,28
2017-08-02T04:09:36.657Z,28
2017-08-02T04:10:17.120Z,28
2017-08-02T04:10:57.569Z,32
2017-08-02T04:11:38.028Z,32
2017-08-02T04:12:18.495Z,32
2017-08-02T04:12:58.952Z,36
2017-08-02T04:13:39.416Z,40
2017-08-02T04:14:19.876Z,40
2017-08-02T04:15:00.345Z,44
2017-08-02T04:15:40.791Z,44
2017-08-02T04:16:21.300Z,44
2017-08-02T04:17:01.755Z,48
2017-08-02T04:17:42.205Z,52
2017-08-02T04:18:22.707Z,52
2017-08-02T04:19:03.165Z,56
2017-08-02T04:19:43.620Z,56
2017-08-02T04:20:24.072Z,60
2017-08-02T04:21:04.530Z,64
2017-08-02T04:21:44.997Z,64
2017-08-02T04:22:25.451Z,68
2017-08-02T04:23:05.906Z,72
2017-08-02T04:23:46.367Z,68
2017-08-02T04:24:26.801Z,72
2017-08-02T04:25:07.259Z,76
2017-08-02T04:25:47.721Z,76
2017-08-02T04:26:28.162Z,80
2017-08-02T04:27:08.618Z,80
2017-08-02T04:27:49.059Z,84
2017-08-02T04:28:29.500Z,84
2017-08-02T04:29:09.960Z,88
2017-08-02T04:29:50.415Z,92
2017-08-02T04:30:30.857Z,92
2017-08-02T04:31:11.313Z,92
2017-08-02T04:31:51.767Z,100
2017-08-02T04:32:32.222Z,100
2017-08-02T04:33:12.676Z,104
2017-08-02T04:33:53.132Z,104
2017-08-02T04:34:33.572Z,104
2017-08-02T04:35:14.016Z,108
2017-08-02T04:35:54.476Z,108
2017-08-02T04:36:34.972Z,112
2017-08-02T04:37:15.442Z,112
2017-08-02T04:37:55.875Z,116
2017-08-02T04:38:36.336Z,120
2017-08-02T04:39:16.796Z,120
2017-08-02T04:39:57.247Z,124
2017-08-02T04:40:37.684Z,124
2017-08-02T04:41:18.142Z,128
2017-08-02T04:41:58.596Z,128
2017-08-02T04:42:39.061Z,132
2017-08-02T04:43:19.516Z,132
2017-08-02T04:43:59.969Z,140
2017-08-02T04:44:40.422Z,140
2017-08-02T04:45:20.876Z,140
2017-08-02T04:46:01.328Z,144
2017-08-02T04:46:41.773Z,144
2017-08-02T04:47:22.233Z,148
2017-08-02T04:48:02.693Z,148
2017-08-02T04:48:43.152Z,144
2017-08-02T04:49:23.601Z,140
2017-08-02T04:50:04.060Z,136
2017-08-02T04:50:44.509Z,132
2017-08-02T04:51:24.964Z,124
2017-08-02T04:52:05.421Z,120
2017-08-02T04:52:45.880Z,116
2017-08-02T04:53:26.337Z,116
2017-08-02T04:54:06.792Z,108
2017-08-02T04:54:47.253Z,104
2017-08-02T04:55:27.717Z,104
2017-08-02T04:56:08.169Z,100
2017-08-02T04:56:48.637Z,104
2017-08-02T04:57:29.090Z,108
2017-08-02T04:58:09.565Z,116
2017-08-02T04:58:50.020Z,120
2017-08-02T04:59:30.477Z,124
2017-08-02T05:00:10.934Z,132
2017-08-02T05:00:51.384Z,140
2017-08-02T05:01:31.843Z,148
2017-08-02T05:02:12.303Z,156
2017-08-02T05:02:52.757Z,160
2017-08-02T05:03:33.216Z,172
2017-08-02T05:04:13.677Z,180
2017-08-02T05:04:54.142Z,188
2017-08-02T05:05:34.594Z,196
2017-08-02T05:06:15.049Z,204
2017-08-02T05:06:55.499Z,208
2017-08-02T05:07:35.956Z,212
2017-08-02T05:08:16.411Z,212
2017-08-02T05:08:56.864Z,216
2017-08-02T05:09:37.316Z,212
2017-08-02T05:10:17.780Z,208
2017-08-02T05:10:58.228Z,204
2017-08-02T05:11:38.687Z,204
2017-08-02T05:12:19.148Z,204
2017-08-02T05:12:59.607Z,212
2017-08-02T05:13:40.066Z,212
2017-08-02T05:14:20.517Z,208
2017-08-02T05:15:00.969Z,208
2017-08-02T05:15:41.435Z,212
2017-08-02T05:16:21.884Z,220
2017-08-02T05:17:02.383Z,236
2017-08-02T05:17:42.831Z,252
2017-08-02T05:18:23.283Z,276
2017-08-02T05:19:03.721Z,288
2017-08-02T05:19:44.193Z,288
2017-08-02T05:20:24.665Z,292
2017-08-02T05:21:05.120Z,304
2017-08-02T05:21:45.577Z,308
2017-08-02T05:22:26.058Z,304
2017-08-02T05:23:06.510Z,312
2017-08-02T05:23:46.958Z,312
2017-08-02T05:24:27.410Z,312
2017-08-02T05:25:07.869Z,316
2017-08-02T05:25:48.329Z,320
2017-08-02T05:26:28.815Z,316
2017-08-02T05:27:09.254Z,324
2017-08-02T05:27:49.708Z,356
2017-08-02T05:28:30.164Z,400
2017-08-02T05:29:10.619Z,420
2017-08-02T05:29:51.080Z,396
2017-08-02T05:30:31.541Z,388
2017-08-02T05:31:11.998Z,388
2017-08-02T05:31:52.479Z,392
2017-08-02T05:32:32.914Z,384
2017-08-02T05:33:13.371Z,392
2017-08-02T05:33:53.830Z,420
2017-08-02T05:34:34.290Z,440
2017-08-02T05:35:14.749Z,460
2017-08-02T05:35:55.196Z,436
2017-08-02T05:36:35.648Z,392
2017-08-02T05:37:16.104Z,364
2017-08-02T05:37:56.562Z,344
2017-08-02T05:38:37.022Z,340
2017-08-02T05:39:17.533Z,352
2017-08-02T05:39:57.939Z,356
2017-08-02T05:40:38.400Z,380
2017-08-02T05:41:18.855Z,384
2017-08-02T05:41:59.320Z,384
2017-08-02T05:42:39.772Z,380
2017-08-02T05:43:20.224Z,392
2017-08-02T05:44:00.680Z,456
2017-08-02T05:44:41.134Z,440
2017-08-02T05:45:21.595Z,424
2017-08-02T05:46:02.053Z,400
2017-08-02T05:46:42.519Z,400
2017-08-02T05:47:22.976Z,412
2017-08-02T05:48:03.429Z,468
2017-08-02T05:48:43.870Z,480
2017-08-02T05:49:24.331Z,484
2017-08-02T05:50:04.796Z,532
2017-08-02T05:50:45.251Z,536
2017-08-02T05:51:25.706Z,536
2017-08-02T05:52:06.165Z,568
2017-08-02T05:52:46.625Z,604
2017-08-02T05:53:27.080Z,572
2017-08-02T05:54:07.538Z,584
2017-08-02T05:54:47.993Z,600
2017-08-02T05:55:28.453Z,608
2017-08-02T05:56:08.899Z,608
2017-08-02T05:56:49.359Z,524
2017-08-02T05:57:29.812Z,632
2017-08-02T05:58:10.287Z,648
2017-08-02T05:58:50.723Z,648
2017-08-02T05:59:31.197Z,588
2017-08-02T06:00:11.654Z,616
2017-08-02T06:00:52.114Z,624
2017-08-02T06:01:32.570Z,724
2017-08-02T06:02:13.017Z,808
2017-08-02T06:02:53.505Z,752
2017-08-02T06:03:33.949Z,636
2017-08-02T06:04:14.402Z,624
2017-08-02T06:04:54.856Z,648
2017-08-02T06:05:35.309Z,636
2017-08-02T06:06:15.768Z,820
2017-08-02T06:06:56.225Z,772
2017-08-02T06:07:36.684Z,780
2017-08-02T06:08:17.140Z,800
2017-08-02T06:08:57.593Z,780
2017-08-02T06:09:38.069Z,796
2017-08-02T06:10:18.521Z,708
2017-08-02T06:10:58.992Z,580
2017-08-02T06:11:39.461Z,536
2017-08-02T06:12:19.925Z,540
2017-08-02T06:13:00.381Z,688
2017-08-02T06:13:40.851Z,588
2017-08-02T06:14:21.307Z,852
2017-08-02T06:15:01.763Z,784
2017-08-02T06:15:42.209Z,672
2017-08-02T06:16:22.649Z,920
2017-08-02T06:17:03.105Z,920
2017-08-02T06:17:43.569Z,948
2017-08-02T06:18:24.028Z,860
2017-08-02T06:19:04.487Z,928
2017-08-02T06:19:44.929Z,812
2017-08-02T06:20:25.384Z,924
2017-08-02T06:21:05.844Z,936
2017-08-02T06:21:46.302Z,952
2017-08-02T06:22:26.761Z,936
2017-08-02T06:23:07.218Z,912
2017-08-02T06:23:47.665Z,964
2017-08-02T06:24:28.124Z,956
2017-08-02T06:25:08.579Z,960
2017-08-02T06:25:49.056Z,940
2017-08-02T06:26:29.513Z,916
2017-08-02T06:27:09.964Z,916
2017-08-02T06:27:50.420Z,948
2017-08-02T06:28:30.875Z,936
2017-08-02T06:29:11.333Z,980
2017-08-02T06:29:51.792Z,900
2017-08-02T06:30:32.252Z,1020
2017-08-02T06:31:12.699Z,976
2017-08-02T06:31:53.140Z,924
2017-08-02T06:32:33.598Z,852
2017-08-02T06:33:14.056Z,864
2017-08-02T06:33:54.508Z,836
2017-08-02T06:34:34.961Z,1064
2017-08-02T06:35:15.419Z,1088
2017-08-02T06:35:55.882Z,1116
2017-08-02T06:36:36.334Z,1116
2017-08-02T06:37:16.790Z,1140
2017-08-02T06:37:57.245Z,1156
2017-08-02T06:38:37.705Z,1164
2017-08-02T06:39:18.161Z,1184
2017-08-02T06:39:58.618Z,1188
2017-08-02T06:40:39.081Z,1192
2017-08-02T06:41:19.533Z,1012
2017-08-02T06:41:59.991Z,1028
2017-08-02T06:42:40.447Z,836
2017-08-02T06:43:20.912Z,680
2017-08-02T06:44:01.367Z,664
2017-08-02T06:44:41.816Z,676
2017-08-02T06:45:22.270Z,716
2017-08-02T06:46:02.729Z,776
2017-08-02T06:46:43.185Z,800
2017-08-02T06:47:23.652Z,848
2017-08-02T06:48:04.102Z,820
2017-08-02T06:48:44.565Z,1040
2017-08-02T06:49:25.022Z,1076
2017-08-02T06:50:05.477Z,1160
2017-08-02T06:50:45.922Z,1168
2017-08-02T06:51:26.375Z,728
2017-08-02T06:52:06.836Z,700
2017-08-02T06:52:47.296Z,772
2017-08-02T06:53:27.754Z,832
2017-08-02T06:54:08.221Z,1108
2017-08-02T06:54:48.677Z,1076
2017-08-02T06:55:29.128Z,1300
2017-08-02T06:56:09.680Z,1324
2017-08-02T06:56:50.081Z,1352
2017-08-02T06:57:30.540Z,1388
2017-08-02T06:58:10.992Z,1408
2017-08-02T06:58:51.444Z,1420
2017-08-02T06:59:31.897Z,1408
2017-08-02T07:00:12.346Z,1400
2017-08-02T07:00:52.805Z,1412
2017-08-02T07:01:33.255Z,1416
2017-08-02T07:02:13.754Z,1488
2017-08-02T07:02:54.141Z,1504
2017-08-02T07:03:34.598Z,1472
2017-08-02T07:04:15.055Z,1392
2017-08-02T07:04:55.516Z,1160
2017-08-02T07:05:35.975Z,1200
2017-08-02T07:06:16.446Z,1156
2017-08-02T07:06:56.907Z,1404
2017-08-02T07:07:37.356Z,1064
2017-08-02T07:08:17.877Z,1308
2017-08-02T07:08:58.371Z,1548
2017-08-02T07:09:38.833Z,1532
2017-08-02T07:10:19.263Z,1620
2017-08-02T07:10:59.722Z,1624
2017-08-02T07:11:40.180Z,1476
2017-08-02T07:12:20.639Z,1492
2017-08-02T07:13:01.100Z,1524
2017-08-02T07:13:41.557Z,1348
2017-08-02T07:14:22.018Z,1064
2017-08-02T07:15:02.493Z,1076
2017-08-02T07:15:42.948Z,1132
2017-08-02T07:16:23.404Z,1172
2017-08-02T07:17:03.856Z,1260
2017-08-02T07:17:44.316Z,1324
2017-08-02T07:18:24.808Z,1248
2017-08-02T07:19:05.263Z,1248
2017-08-02T07:19:45.723Z,1372
2017-08-02T07:20:26.179Z,1392
2017-08-02T07:21:06.627Z,1444
2017-08-02T07:21:47.087Z,1476
2017-08-02T07:22:27.533Z,1444
2017-08-02T07:23:08.003Z,1552
2017-08-02T07:23:48.470Z,1660
2017-08-02T07:24:28.923Z,1420
2017-08-02T07:25:09.382Z,1532
2017-08-02T07:25:49.843Z,1504
2017-08-02T07:26:30.298Z,1396
2017-08-02T07:27:10.754Z,1420
2017-08-02T07:27:51.208Z,1320
2017-08-02T07:28:31.665Z,1380
2017-08-02T07:29:12.130Z,1340
2017-08-02T07:29:52.575Z,1392
2017-08-02T07:30:33.043Z,1520
2017-08-02T07:31:13.503Z,1664
2017-08-02T07:31:53.960Z,1912
2017-08-02T07:32:34.396Z,1824
2017-08-02T07:33:14.879Z,1532
2017-08-02T07:33:55.332Z,1796
2017-08-02T07:34:35.780Z,1992
2017-08-02T07:35:16.238Z,1932
2017-08-02T07:35:56.695Z,1752
2017-08-02T07:36:37.250Z,1556
2017-08-02T07:37:17.706Z,2212
2017-08-02T07:37:58.147Z,2248
2017-08-02T07:38:38.613Z,1976
2017-08-02T07:39:19.069Z,2120
2017-08-02T07:39:59.523Z,2092
2017-08-02T07:40:39.984Z,1948
2017-08-02T07:41:20.444Z,1912
2017-08-02T07:42:00.897Z,1680
2017-08-02T07:42:41.354Z,1784
2017-08-02T07:43:21.811Z,1784
2017-08-02T07:44:02.268Z,1604
2017-08-02T07:44:42.736Z,1556
2017-08-02T07:45:23.196Z,1636
2017-08-02T07:46:03.647Z,1712
2017-08-02T07:46:44.128Z,2040
2017-08-02T07:47:24.570Z,2232
2017-08-02T07:48:05.050Z,2312
2017-08-02T07:48:45.509Z,2336
2017-08-02T07:49:26.053Z,1924
2017-08-02T07:50:06.508Z,2168
2017-08-02T07:50:46.971Z,1716
2017-08-02T07:51:27.426Z,1788
2017-08-02T07:52:07.885Z,2000
2017-08-02T07:52:48.339Z,2292
2017-08-02T07:53:28.788Z,2432
2017-08-02T07:54:10.038Z,2448
2017-08-02T07:54:50.503Z,2420
2017-08-02T07:55:31.113Z,2356
2017-08-02T07:56:11.484Z,2368
2017-08-02T07:56:51.976Z,2464
2017-08-02T07:57:32.430Z,2436
2017-08-02T07:58:12.893Z,2540
2017-08-02T07:58:53.361Z,2548
2017-08-02T07:59:33.829Z,2572
2017-08-02T08:00:14.293Z,2492
2017-08-02T08:00:54.755Z,1680
2017-08-02T08:03:22.882Z,1736
2017-08-02T08:04:03.339Z,1536
2017-08-02T08:04:43.800Z,1524
2017-08-02T08:05:24.252Z,1188
2017-08-02T08:06:04.706Z,1980
2017-08-02T08:06:45.194Z,2432
2017-08-02T08:07:25.682Z,2432
2017-08-02T08:08:06.109Z,2464
2017-08-02T08:08:46.566Z,2436
2017-08-02T08:09:27.010Z,2444
2017-08-02T08:10:07.447Z,2564
2017-08-02T08:10:47.901Z,2548
2017-08-02T08:11:28.374Z,2624
2017-08-02T08:12:08.834Z,2680
2017-08-02T08:14:41.914Z,2780
2017-08-02T08:15:22.373Z,2356
2017-08-02T08:16:02.821Z,1920
2017-08-02T08:16:43.257Z,1688
2017-08-02T08:17:23.714Z,1232
2017-08-02T08:18:04.165Z,1012
2017-08-02T08:18:44.613Z,956
2017-08-02T08:19:25.066Z,932
2017-08-02T08:20:05.512Z,916
2017-08-02T08:20:45.973Z,912
2017-08-02T08:21:26.439Z,900
2017-08-02T08:22:06.888Z,900
2017-08-02T08:22:47.340Z,904
2017-08-02T08:23:27.799Z,916
2017-08-02T08:24:08.256Z,904
2017-08-02T08:24:48.709Z,908
2017-08-02T08:25:29.168Z,968
2017-08-02T08:26:09.688Z,1144
2017-08-02T08:26:50.069Z,1028
2017-08-02T08:27:30.523Z,952
2017-08-02T08:28:11.276Z,936
2017-08-02T08:28:51.758Z,920
2017-08-02T08:29:32.207Z,956
2017-08-02T08:30:12.660Z,1008
2017-08-02T08:30:53.180Z,1068
2017-08-02T08:31:33.635Z,1076
2017-08-02T08:32:14.086Z,1080
2017-08-02T08:32:54.571Z,1100
2017-08-02T08:33:35.196Z,1244
2017-08-02T08:34:15.588Z,1828
2017-08-02T08:34:56.046Z,1856
2017-08-02T08:35:36.504Z,1528
2017-08-02T08:36:16.989Z,1360
2017-08-02T08:36:57.515Z,1440
2017-08-02T08:37:37.972Z,1920
2017-08-02T08:38:18.441Z,2208
2017-08-02T08:38:58.872Z,2116
2017-08-02T08:39:39.333Z,1384
2017-08-02T08:40:19.802Z,1752
2017-08-02T08:41:00.273Z,1892
2017-08-02T08:41:40.732Z,1880
2017-08-02T08:42:21.189Z,1940
2017-08-02T08:43:01.650Z,1768
2017-08-02T08:43:42.110Z,2204
2017-08-02T08:44:22.576Z,2600
2017-08-02T08:45:03.315Z,2624
2017-08-02T08:45:43.768Z,2836
2017-08-02T08:48:01.801Z,3208
2017-08-02T08:48:42.252Z,3272
2017-08-02T08:49:22.694Z,3272
2017-08-02T08:50:03.152Z,3220
2017-08-02T08:50:43.592Z,3220
2017-08-02T08:51:24.048Z,3248
2017-08-02T08:52:04.491Z,3312
2017-08-02T08:52:44.935Z,3264
2017-08-02T08:53:25.382Z,3256
2017-08-02T08:54:05.838Z,3244
2017-08-02T08:54:46.291Z,3260
2017-08-02T08:55:26.797Z,3328
2017-08-02T08:56:07.252Z,3268
2017-08-02T08:56:47.704Z,3184
2017-08-02T08:57:28.161Z,2940
2017-08-02T08:58:08.599Z,2712
2017-08-02T08:58:49.049Z,2140
2017-08-02T08:59:29.508Z,1712
2017-08-02T09:00:09.956Z,1904
2017-08-02T09:00:50.399Z,2100
2017-08-02T09:01:30.864Z,2352
2017-08-02T09:02:11.333Z,2120
2017-08-02T09:02:51.740Z,1784
2017-08-02T09:03:32.198Z,2424
2017-08-02T09:04:12.653Z,3164
2017-08-02T09:04:53.111Z,1728
2017-08-02T09:05:33.839Z,2976
2017-08-02T09:06:14.033Z,3160
2017-08-02T09:06:54.489Z,3268
2017-08-02T09:07:34.963Z,3192
2017-08-02T09:08:15.441Z,3192
2017-08-02T09:08:55.922Z,3152
2017-08-02T09:09:36.367Z,3024
2017-08-02T09:10:16.795Z,2840
2017-08-02T09:10:57.253Z,2992
2017-08-02T09:11:37.721Z,3024
2017-08-02T09:12:18.190Z,3124
2017-08-02T09:12:58.648Z,3008
2017-08-02T09:13:39.097Z,2744
2017-08-02T09:14:19.552Z,3264
2017-08-02T09:15:00.004Z,3256
2017-08-02T09:15:40.458Z,3236
2017-08-02T09:16:20.920Z,3280
2017-08-02T09:17:01.381Z,3268
2017-08-02T09:17:41.832Z,3260
2017-08-02T09:18:22.292Z,3244
2017-08-02T09:19:02.756Z,3180
2017-08-02T09:19:43.238Z,3228
2017-08-02T09:20:23.694Z,3308
2017-08-02T09:21:04.161Z,3300
2017-08-02T09:21:44.620Z,3292
2017-08-02T09:22:25.109Z,3300
2017-08-02T09:23:05.566Z,3224
2017-08-02T09:23:46.025Z,3260
2017-08-02T09:24:26.491Z,3272
2017-08-02T09:25:06.952Z,3256
2017-08-02T09:25:47.403Z,3296
2017-08-02T09:26:27.903Z,3296
2017-08-02T09:27:08.352Z,3304
2017-08-02T09:27:48.819Z,3308
2017-08-02T09:28:29.445Z,3252
2017-08-02T09:29:09.882Z,3192
2017-08-02T09:29:50.273Z,3028
2017-08-02T09:30:30.693Z,3076
2017-08-02T09:31:11.120Z,2988
2017-08-02T09:33:08.866Z,3216
2017-08-02T09:33:49.305Z,3228
2017-08-02T09:34:29.750Z,3264
2017-08-02T09:35:10.197Z,3244
2017-08-02T09:35:50.621Z,3164
2017-08-02T09:36:31.076Z,3152
2017-08-02T09:37:11.536Z,3184
2017-08-02T09:37:52.008Z,3220
2017-08-02T09:38:32.462Z,3236
2017-08-02T09:39:12.924Z,3280